sensor_id;sensor_type;location;lat;lon;timestamp;pressure;altitude;pressure_sealevel;temperature;humidity
48874;BME280;66155;46.204;5.220;2023-04-19T00:00:49;98805.13;;;11.90;61.82
48874;BME280;66155;46.204;5.220;2023-04-19T00:05:49;98804.53;;;11.88;61.62
48874;BME280;66155;46.204;5.220;2023-04-19T00:10:53;98805.44;;;12.04;61.08
48874;BME280;66155;46.204;5.220;2023-04-19T00:15:54;98801.75;;;12.00;61.57
48874;BME280;66155;46.204;5.220;2023-04-19T00:20:54;98808.50;;;11.91;61.53
48874;BME280;66155;46.204;5.220;2023-04-19T00:25:55;98814.50;;;11.91;61.20
48874;BME280;66155;46.204;5.220;2023-04-19T00:30:56;98804.28;;;11.90;61.15
48874;BME280;66155;46.204;5.220;2023-04-19T00:35:56;98800.84;;;11.84;61.52
48874;BME280;66155;46.204;5.220;2023-04-19T00:40:57;98797.69;;;11.77;61.95
48874;BME280;66155;46.204;5.220;2023-04-19T00:45:58;98798.13;;;11.69;62.16
48874;BME280;66155;46.204;5.220;2023-04-19T00:50:59;98796.00;;;11.60;62.20
48874;BME280;66155;46.204;5.220;2023-04-19T00:56:01;98801.09;;;11.45;62.59
48874;BME280;66155;46.204;5.220;2023-04-19T01:01:03;98788.50;;;11.37;62.86
48874;BME280;66155;46.204;5.220;2023-04-19T01:06:05;98783.56;;;11.35;63.15
48874;BME280;66155;46.204;5.220;2023-04-19T01:11:06;98778.34;;;11.35;63.13
48874;BME280;66155;46.204;5.220;2023-04-19T01:16:07;98777.75;;;11.28;63.16
48874;BME280;66155;46.204;5.220;2023-04-19T01:21:08;98782.69;;;11.30;63.23
48874;BME280;66155;46.204;5.220;2023-04-19T01:26:08;98776.88;;;11.17;63.62
48874;BME280;66155;46.204;5.220;2023-04-19T01:31:09;98771.88;;;11.11;63.69
48874;BME280;66155;46.204;5.220;2023-04-19T01:36:09;98777.22;;;10.99;63.98
48874;BME280;66155;46.204;5.220;2023-04-19T01:41:10;98777.66;;;10.91;64.71
48874;BME280;66155;46.204;5.220;2023-04-19T01:46:10;98769.00;;;10.85;64.71
48874;BME280;66155;46.204;5.220;2023-04-19T01:51:10;98773.59;;;10.51;66.25
48874;BME280;66155;46.204;5.220;2023-04-19T01:56:11;98769.31;;;10.39;66.10
48874;BME280;66155;46.204;5.220;2023-04-19T02:01:11;98763.81;;;10.36;66.26
48874;BME280;66155;46.204;5.220;2023-04-19T02:06:12;98765.50;;;10.30;66.79
48874;BME280;66155;46.204;5.220;2023-04-19T02:11:13;98774.84;;;10.26;66.77
48874;BME280;66155;46.204;5.220;2023-04-19T02:16:13;98773.22;;;10.20;67.20
48874;BME280;66155;46.204;5.220;2023-04-19T02:21:14;98774.66;;;10.11;68.16
48874;BME280;66155;46.204;5.220;2023-04-19T02:26:14;98780.47;;;10.18;66.77
48874;BME280;66155;46.204;5.220;2023-04-19T02:31:15;98775.63;;;10.26;66.35
48874;BME280;66155;46.204;5.220;2023-04-19T02:36:15;98778.44;;;10.20;66.60
48874;BME280;66155;46.204;5.220;2023-04-19T02:41:16;98784.44;;;10.03;67.24
48874;BME280;66155;46.204;5.220;2023-04-19T02:46:16;98788.56;;;9.82;68.20
48874;BME280;66155;46.204;5.220;2023-04-19T02:51:17;98780.94;;;9.59;69.32
48874;BME280;66155;46.204;5.220;2023-04-19T02:56:17;98793.25;;;9.63;68.50
48874;BME280;66155;46.204;5.220;2023-04-19T03:01:18;98783.16;;;9.67;68.85
48874;BME280;66155;46.204;5.220;2023-04-19T03:06:18;98785.47;;;9.63;68.99
48874;BME280;66155;46.204;5.220;2023-04-19T03:11:19;98789.84;;;9.63;69.08
48874;BME280;66155;46.204;5.220;2023-04-19T03:16:20;98796.09;;;9.62;68.96
48874;BME280;66155;46.204;5.220;2023-04-19T03:21:21;98791.59;;;9.74;68.54
48874;BME280;66155;46.204;5.220;2023-04-19T03:26:21;98793.06;;;9.87;68.05
48874;BME280;66155;46.204;5.220;2023-04-19T03:31:21;98787.94;;;9.92;68.17
48874;BME280;66155;46.204;5.220;2023-04-19T03:36:22;98783.59;;;9.98;67.65
48874;BME280;66155;46.204;5.220;2023-04-19T03:41:24;98783.13;;;10.01;67.77
48874;BME280;66155;46.204;5.220;2023-04-19T03:46:25;98786.75;;;10.00;67.05
48874;BME280;66155;46.204;5.220;2023-04-19T03:51:25;98791.88;;;9.95;67.53
48874;BME280;66155;46.204;5.220;2023-04-19T03:56:26;98779.59;;;9.90;67.19
48874;BME280;66155;46.204;5.220;2023-04-19T04:01:26;98788.97;;;9.91;67.37
48874;BME280;66155;46.204;5.220;2023-04-19T04:06:27;98772.97;;;9.82;67.14
48874;BME280;66155;46.204;5.220;2023-04-19T04:11:27;98772.97;;;9.82;67.26
48874;BME280;66155;46.204;5.220;2023-04-19T04:16:28;98774.78;;;9.82;67.00
48874;BME280;66155;46.204;5.220;2023-04-19T04:21:28;98773.63;;;9.73;67.33
48874;BME280;66155;46.204;5.220;2023-04-19T04:26:29;98781.97;;;9.75;67.18
48874;BME280;66155;46.204;5.220;2023-04-19T04:31:33;98792.38;;;9.75;66.95
48874;BME280;66155;46.204;5.220;2023-04-19T04:36:35;98809.41;;;9.65;67.57
48874;BME280;66155;46.204;5.220;2023-04-19T04:41:38;98802.84;;;9.63;67.66
48874;BME280;66155;46.204;5.220;2023-04-19T04:46:41;98800.59;;;9.49;67.62
48874;BME280;66155;46.204;5.220;2023-04-19T04:51:41;98801.91;;;9.52;67.45
48874;BME280;66155;46.204;5.220;2023-04-19T04:56:42;98807.69;;;9.54;67.45
48874;BME280;66155;46.204;5.220;2023-04-19T05:01:42;98805.47;;;9.63;67.34
48874;BME280;66155;46.204;5.220;2023-04-19T05:06:43;98806.34;;;9.68;67.05
48874;BME280;66155;46.204;5.220;2023-04-19T05:11:43;98808.44;;;9.71;66.86
48874;BME280;66155;46.204;5.220;2023-04-19T05:16:44;98807.22;;;9.74;66.57
48874;BME280;66155;46.204;5.220;2023-04-19T05:21:44;98808.00;;;9.75;66.69
48874;BME280;66155;46.204;5.220;2023-04-19T05:26:45;98806.75;;;9.77;65.94
48874;BME280;66155;46.204;5.220;2023-04-19T05:31:45;98810.19;;;9.83;65.93
48874;BME280;66155;46.204;5.220;2023-04-19T05:36:46;98811.59;;;9.90;66.03
48874;BME280;66155;46.204;5.220;2023-04-19T05:41:47;98814.66;;;9.87;66.03
48874;BME280;66155;46.204;5.220;2023-04-19T05:46:47;98811.22;;;9.82;66.21
48874;BME280;66155;46.204;5.220;2023-04-19T05:51:47;98812.34;;;9.69;67.06
48874;BME280;66155;46.204;5.220;2023-04-19T05:56:48;98803.47;;;9.87;67.00
48874;BME280;66155;46.204;5.220;2023-04-19T06:01:48;98803.09;;;9.95;67.08
48874;BME280;66155;46.204;5.220;2023-04-19T06:06:49;98807.47;;;10.12;66.75
48874;BME280;66155;46.204;5.220;2023-04-19T06:11:49;98809.84;;;10.13;66.92
48874;BME280;66155;46.204;5.220;2023-04-19T06:16:50;98811.41;;;10.31;66.79
48874;BME280;66155;46.204;5.220;2023-04-19T06:21:50;98815.59;;;10.32;66.78
48874;BME280;66155;46.204;5.220;2023-04-19T06:26:50;98810.53;;;10.25;67.34
48874;BME280;66155;46.204;5.220;2023-04-19T06:31:51;98812.13;;;10.09;68.10
48874;BME280;66155;46.204;5.220;2023-04-19T06:36:51;98810.81;;;9.90;69.10
48874;BME280;66155;46.204;5.220;2023-04-19T06:41:52;98811.44;;;9.97;68.73
48874;BME280;66155;46.204;5.220;2023-04-19T06:46:52;98808.91;;;10.02;68.97
48874;BME280;66155;46.204;5.220;2023-04-19T06:51:53;98818.84;;;10.44;68.34
48874;BME280;66155;46.204;5.220;2023-04-19T06:56:55;98818.63;;;10.68;67.51
48874;BME280;66155;46.204;5.220;2023-04-19T07:01:55;98821.72;;;10.92;66.78
48874;BME280;66155;46.204;5.220;2023-04-19T07:06:57;98828.94;;;11.07;67.53
48874;BME280;66155;46.204;5.220;2023-04-19T07:11:57;98818.69;;;11.00;67.28
48874;BME280;66155;46.204;5.220;2023-04-19T07:16:58;98819.31;;;11.40;66.67
48874;BME280;66155;46.204;5.220;2023-04-19T07:21:58;98818.84;;;11.80;65.29
48874;BME280;66155;46.204;5.220;2023-04-19T07:26:59;98822.88;;;11.93;65.18
48874;BME280;66155;46.204;5.220;2023-04-19T07:32:01;98825.47;;;12.41;64.32
48874;BME280;66155;46.204;5.220;2023-04-19T07:37:01;98832.63;;;12.66;63.91
48874;BME280;66155;46.204;5.220;2023-04-19T07:42:02;98831.00;;;12.50;64.08
48874;BME280;66155;46.204;5.220;2023-04-19T07:47:03;98835.78;;;12.63;63.58
48874;BME280;66155;46.204;5.220;2023-04-19T07:52:06;98829.06;;;12.98;63.23
48874;BME280;66155;46.204;5.220;2023-04-19T07:57:07;98832.47;;;13.04;63.04
48874;BME280;66155;46.204;5.220;2023-04-19T08:02:08;98835.84;;;12.84;63.29
48874;BME280;66155;46.204;5.220;2023-04-19T08:07:08;98823.88;;;12.30;64.56
48874;BME280;66155;46.204;5.220;2023-04-19T08:12:09;98825.22;;;11.95;65.25
48874;BME280;66155;46.204;5.220;2023-04-19T08:17:09;98820.88;;;11.73;65.75
48874;BME280;66155;46.204;5.220;2023-04-19T08:22:09;98826.63;;;11.75;66.21
48874;BME280;66155;46.204;5.220;2023-04-19T08:27:10;98832.25;;;11.57;66.76
48874;BME280;66155;46.204;5.220;2023-04-19T08:32:11;98822.00;;;11.50;66.70
48874;BME280;66155;46.204;5.220;2023-04-19T08:37:12;98826.16;;;11.46;67.01
48874;BME280;66155;46.204;5.220;2023-04-19T08:42:12;98835.00;;;11.45;67.21
48874;BME280;66155;46.204;5.220;2023-04-19T08:47:15;98826.94;;;11.47;68.50
48874;BME280;66155;46.204;5.220;2023-04-19T08:52:16;98825.94;;;11.53;68.07
48874;BME280;66155;46.204;5.220;2023-04-19T08:57:17;98826.31;;;11.67;68.15
48874;BME280;66155;46.204;5.220;2023-04-19T09:02:17;98831.91;;;11.80;67.54
48874;BME280;66155;46.204;5.220;2023-04-19T09:07:26;98830.38;;;11.90;67.96
48874;BME280;66155;46.204;5.220;2023-04-19T09:12:27;98829.50;;;12.06;68.04
48874;BME280;66155;46.204;5.220;2023-04-19T09:17:27;98823.59;;;12.26;67.50
48874;BME280;66155;46.204;5.220;2023-04-19T09:22:28;98821.03;;;12.36;68.50
48874;BME280;66155;46.204;5.220;2023-04-19T09:27:31;98811.19;;;12.59;67.60
48874;BME280;66155;46.204;5.220;2023-04-19T09:32:47;98804.69;;;12.77;67.32
48874;BME280;66155;46.204;5.220;2023-04-19T09:37:58;98805.53;;;12.98;66.75
48874;BME280;66155;46.204;5.220;2023-04-19T09:43:01;98794.56;;;13.11;66.60
48874;BME280;66155;46.204;5.220;2023-04-19T09:48:04;98786.19;;;13.25;66.09
48874;BME280;66155;46.204;5.220;2023-04-19T09:53:06;98778.13;;;13.31;65.83
48874;BME280;66155;46.204;5.220;2023-04-19T09:58:06;98776.56;;;13.46;65.09
48874;BME280;66155;46.204;5.220;2023-04-19T10:03:08;98773.16;;;13.56;64.89
48874;BME280;66155;46.204;5.220;2023-04-19T10:08:11;98759.50;;;13.74;64.47
48874;BME280;66155;46.204;5.220;2023-04-19T10:13:12;98747.94;;;13.91;64.19
48874;BME280;66155;46.204;5.220;2023-04-19T10:18:17;98753.16;;;14.01;63.88
48874;BME280;66155;46.204;5.220;2023-04-19T10:23:18;98745.53;;;14.10;64.25
48874;BME280;66155;46.204;5.220;2023-04-19T10:28:19;98734.19;;;14.24;63.79
48874;BME280;66155;46.204;5.220;2023-04-19T10:33:30;98726.25;;;14.45;63.47
48874;BME280;66155;46.204;5.220;2023-04-19T10:38:40;98721.47;;;14.62;62.87
48874;BME280;66155;46.204;5.220;2023-04-19T10:44:30;98719.53;;;14.78;61.66
48874;BME280;66155;46.204;5.220;2023-04-19T10:49:06;98721.78;;;14.90;62.36
48874;BME280;66155;46.204;5.220;2023-04-19T10:54:26;98715.09;;;15.08;61.93
48874;BME280;66155;46.204;5.220;2023-04-19T10:59:30;98707.38;;;15.22;62.26
48874;BME280;66155;46.204;5.220;2023-04-19T11:09:32;98694.09;;;15.37;61.64
48874;BME280;66155;46.204;5.220;2023-04-19T11:14:35;98688.13;;;15.56;61.87
48874;BME280;66155;46.204;5.220;2023-04-19T11:19:36;98679.88;;;15.68;61.66
48874;BME280;66155;46.204;5.220;2023-04-19T11:24:36;98676.31;;;15.83;61.57
48874;BME280;66155;46.204;5.220;2023-04-19T11:29:37;98663.00;;;15.98;60.99
48874;BME280;66155;46.204;5.220;2023-04-19T11:34:40;98656.63;;;16.23;60.17
48874;BME280;66155;46.204;5.220;2023-04-19T11:39:45;98656.13;;;16.40;59.47
48874;BME280;66155;46.204;5.220;2023-04-19T11:44:50;98639.78;;;16.43;58.85
48874;BME280;66155;46.204;5.220;2023-04-19T11:49:53;98626.97;;;16.56;58.34
48874;BME280;66155;46.204;5.220;2023-04-19T11:54:53;98627.09;;;16.64;57.29
48874;BME280;66155;46.204;5.220;2023-04-19T12:00:03;98616.28;;;16.66;57.35
48874;BME280;66155;46.204;5.220;2023-04-19T12:05:13;98613.34;;;16.86;55.74
48874;BME280;66155;46.204;5.220;2023-04-19T12:10:14;98607.22;;;16.91;55.16
48874;BME280;66155;46.204;5.220;2023-04-19T12:15:14;98606.94;;;17.06;53.97
48874;BME280;66155;46.204;5.220;2023-04-19T12:20:29;98596.91;;;17.22;52.81
48874;BME280;66155;46.204;5.220;2023-04-19T12:25:31;98591.66;;;17.22;52.97
48874;BME280;66155;46.204;5.220;2023-04-19T12:30:32;98584.34;;;17.47;52.29
48874;BME280;66155;46.204;5.220;2023-04-19T12:35:35;98585.31;;;17.51;50.26
48874;BME280;66155;46.204;5.220;2023-04-19T12:40:36;98579.91;;;17.70;50.91
48874;BME280;66155;46.204;5.220;2023-04-19T12:45:36;98564.78;;;17.90;50.89
48874;BME280;66155;46.204;5.220;2023-04-19T12:50:37;98564.38;;;18.19;50.18
48874;BME280;66155;46.204;5.220;2023-04-19T12:55:37;98563.25;;;18.11;47.19
48874;BME280;66155;46.204;5.220;2023-04-19T13:00:38;98556.72;;;18.09;45.60
48874;BME280;66155;46.204;5.220;2023-04-19T13:05:38;98552.06;;;18.28;47.24
48874;BME280;66155;46.204;5.220;2023-04-19T13:10:38;98540.81;;;18.45;46.63
48874;BME280;66155;46.204;5.220;2023-04-19T13:15:39;98527.47;;;18.73;45.64
48874;BME280;66155;46.204;5.220;2023-04-19T13:20:41;98528.56;;;18.80;45.81
48874;BME280;66155;46.204;5.220;2023-04-19T13:25:41;98524.13;;;18.90;45.16
48874;BME280;66155;46.204;5.220;2023-04-19T13:30:41;98520.00;;;19.15;45.93
48874;BME280;66155;46.204;5.220;2023-04-19T13:35:42;98507.28;;;19.26;44.07
48874;BME280;66155;46.204;5.220;2023-04-19T13:40:44;98506.53;;;19.34;43.54
48874;BME280;66155;46.204;5.220;2023-04-19T13:45:44;98493.03;;;19.44;45.56
48874;BME280;66155;46.204;5.220;2023-04-19T13:50:45;98483.56;;;19.61;44.90
48874;BME280;66155;46.204;5.220;2023-04-19T13:55:45;98480.19;;;19.78;44.14
48874;BME280;66155;46.204;5.220;2023-04-19T14:00:46;98477.38;;;19.83;44.82
48874;BME280;66155;46.204;5.220;2023-04-19T14:05:47;98469.09;;;20.02;44.82
48874;BME280;66155;46.204;5.220;2023-04-19T14:10:49;98448.81;;;20.23;44.25
48874;BME280;66155;46.204;5.220;2023-04-19T14:15:49;98453.53;;;20.56;43.67
48874;BME280;66155;46.204;5.220;2023-04-19T14:20:50;98436.22;;;20.67;43.76
48874;BME280;66155;46.204;5.220;2023-04-19T14:25:51;98440.00;;;20.58;43.42
48874;BME280;66155;46.204;5.220;2023-04-19T14:30:51;98427.53;;;20.58;42.28
48874;BME280;66155;46.204;5.220;2023-04-19T14:35:52;98426.75;;;20.66;41.73
48874;BME280;66155;46.204;5.220;2023-04-19T14:40:52;98417.53;;;20.73;42.36
48874;BME280;66155;46.204;5.220;2023-04-19T14:45:53;98414.88;;;20.73;42.04
48874;BME280;66155;46.204;5.220;2023-04-19T14:50:54;98391.53;;;21.17;42.01
48874;BME280;66155;46.204;5.220;2023-04-19T14:55:54;98407.63;;;21.54;40.92
48874;BME280;66155;46.204;5.220;2023-04-19T15:00:55;98385.06;;;21.81;39.83
48874;BME280;66155;46.204;5.220;2023-04-19T15:05:55;98382.78;;;23.87;36.00
48874;BME280;66155;46.204;5.220;2023-04-19T15:10:56;98374.31;;;26.02;33.46
48874;BME280;66155;46.204;5.220;2023-04-19T15:15:56;98375.19;;;24.69;34.04
48874;BME280;66155;46.204;5.220;2023-04-19T15:20:57;98371.13;;;24.24;34.83
48874;BME280;66155;46.204;5.220;2023-04-19T15:25:58;98359.59;;;25.46;32.34
48874;BME280;66155;46.204;5.220;2023-04-19T15:31:00;98350.13;;;27.73;29.18
48874;BME280;66155;46.204;5.220;2023-04-19T15:36:01;98344.81;;;30.99;25.18
48874;BME280;66155;46.204;5.220;2023-04-19T15:41:02;98330.03;;;33.30;23.01
48874;BME280;66155;46.204;5.220;2023-04-19T15:46:02;98349.38;;;28.87;27.59
48874;BME280;66155;46.204;5.220;2023-04-19T15:51:03;98345.97;;;26.47;30.76
48874;BME280;66155;46.204;5.220;2023-04-19T15:56:04;98347.59;;;25.78;32.25
48874;BME280;66155;46.204;5.220;2023-04-19T16:01:11;98344.09;;;25.12;31.71
48874;BME280;66155;46.204;5.220;2023-04-19T16:06:12;98336.84;;;24.74;32.74
48874;BME280;66155;46.204;5.220;2023-04-19T16:11:12;98335.53;;;25.03;32.56
48874;BME280;66155;46.204;5.220;2023-04-19T16:16:13;98334.06;;;25.68;31.95
48874;BME280;66155;46.204;5.220;2023-04-19T16:21:13;98334.38;;;26.92;30.00
48874;BME280;66155;46.204;5.220;2023-04-19T16:26:14;98326.47;;;29.11;26.15
48874;BME280;66155;46.204;5.220;2023-04-19T16:31:14;98320.28;;;32.02;23.16
48874;BME280;66155;46.204;5.220;2023-04-19T16:36:15;98310.13;;;33.71;21.93
48874;BME280;66155;46.204;5.220;2023-04-19T16:41:15;98313.19;;;34.77;20.11
48874;BME280;66155;46.204;5.220;2023-04-19T16:46:16;98302.06;;;35.60;20.18
48874;BME280;66155;46.204;5.220;2023-04-19T16:51:16;98306.06;;;35.39;19.32
48874;BME280;66155;46.204;5.220;2023-04-19T16:56:16;98294.25;;;35.13;20.05
48874;BME280;66155;46.204;5.220;2023-04-19T17:01:18;98286.66;;;35.74;19.07
48874;BME280;66155;46.204;5.220;2023-04-19T17:06:18;98290.81;;;34.56;19.82
48874;BME280;66155;46.204;5.220;2023-04-19T17:11:19;98283.41;;;33.97;19.69
48874;BME280;66155;46.204;5.220;2023-04-19T17:16:19;98282.75;;;33.69;19.63
48874;BME280;66155;46.204;5.220;2023-04-19T17:21:20;98288.09;;;33.22;19.55
48874;BME280;66155;46.204;5.220;2023-04-19T17:26:20;98282.84;;;32.15;20.60
48874;BME280;66155;46.204;5.220;2023-04-19T17:31:20;98276.81;;;30.99;21.36
48874;BME280;66155;46.204;5.220;2023-04-19T17:36:21;98283.47;;;30.65;22.12
48874;BME280;66155;46.204;5.220;2023-04-19T17:41:21;98269.84;;;28.32;24.84
48874;BME280;66155;46.204;5.220;2023-04-19T17:46:21;98273.50;;;26.48;27.16
48874;BME280;66155;46.204;5.220;2023-04-19T17:51:22;98270.56;;;25.11;28.89
48874;BME280;66155;46.204;5.220;2023-04-19T17:56:22;98271.28;;;24.34;29.72
48874;BME280;66155;46.204;5.220;2023-04-19T18:01:23;98273.63;;;24.35;29.67
48874;BME280;66155;46.204;5.220;2023-04-19T18:06:23;98275.56;;;23.55;30.47
48874;BME280;66155;46.204;5.220;2023-04-19T18:11:24;98270.63;;;23.25;31.00
48874;BME280;66155;46.204;5.220;2023-04-19T18:16:24;98273.81;;;22.74;31.96
48874;BME280;66155;46.204;5.220;2023-04-19T18:21:25;98276.97;;;21.65;33.25
48874;BME280;66155;46.204;5.220;2023-04-19T18:26:35;98285.53;;;20.62;35.25
48874;BME280;66155;46.204;5.220;2023-04-19T18:31:36;98289.53;;;19.70;36.74
48874;BME280;66155;46.204;5.220;2023-04-19T18:36:36;98283.91;;;19.16;37.03
48874;BME280;66155;46.204;5.220;2023-04-19T18:41:37;98294.91;;;18.66;38.59
48874;BME280;66155;46.204;5.220;2023-04-19T18:46:37;98297.91;;;18.24;38.84
48874;BME280;66155;46.204;5.220;2023-04-19T18:51:38;98296.59;;;17.95;39.68
48874;BME280;66155;46.204;5.220;2023-04-19T18:56:38;98295.97;;;17.67;40.51
48874;BME280;66155;46.204;5.220;2023-04-19T19:01:39;98298.59;;;17.36;41.08
48874;BME280;66155;46.204;5.220;2023-04-19T19:06:39;98301.09;;;17.18;41.44
48874;BME280;66155;46.204;5.220;2023-04-19T19:11:40;98307.59;;;16.98;42.47
48874;BME280;66155;46.204;5.220;2023-04-19T19:16:42;98313.97;;;16.83;42.32
48874;BME280;66155;46.204;5.220;2023-04-19T19:21:42;98315.84;;;16.69;42.78
48874;BME280;66155;46.204;5.220;2023-04-19T19:26:42;98320.81;;;16.57;42.87
48874;BME280;66155;46.204;5.220;2023-04-19T19:31:43;98317.13;;;16.44;43.49
48874;BME280;66155;46.204;5.220;2023-04-19T19:36:43;98321.03;;;16.32;43.64
48874;BME280;66155;46.204;5.220;2023-04-19T19:41:44;98322.97;;;16.27;43.70
48874;BME280;66155;46.204;5.220;2023-04-19T19:46:44;98326.59;;;16.17;43.34
48874;BME280;66155;46.204;5.220;2023-04-19T19:51:45;98326.97;;;16.10;43.65
48874;BME280;66155;46.204;5.220;2023-04-19T19:56:45;98327.81;;;16.06;43.76
48874;BME280;66155;46.204;5.220;2023-04-19T20:01:45;98321.97;;;15.95;44.08
48874;BME280;66155;46.204;5.220;2023-04-19T20:06:46;98323.16;;;15.89;43.97
48874;BME280;66155;46.204;5.220;2023-04-19T20:11:46;98324.28;;;15.83;44.92
48874;BME280;66155;46.204;5.220;2023-04-19T20:16:47;98320.84;;;15.68;44.96
48874;BME280;66155;46.204;5.220;2023-04-19T20:21:47;98324.50;;;15.53;45.28
48874;BME280;66155;46.204;5.220;2023-04-19T20:26:48;98326.38;;;15.34;45.48
48874;BME280;66155;46.204;5.220;2023-04-19T20:31:48;98325.06;;;15.17;45.94
48874;BME280;66155;46.204;5.220;2023-04-19T20:36:49;98323.91;;;15.05;46.20
48874;BME280;66155;46.204;5.220;2023-04-19T20:41:50;98325.81;;;14.99;47.06
48874;BME280;66155;46.204;5.220;2023-04-19T20:46:52;98323.06;;;14.90;47.35
48874;BME280;66155;46.204;5.220;2023-04-19T20:51:52;98319.25;;;14.82;47.28
48874;BME280;66155;46.204;5.220;2023-04-19T20:56:52;98306.53;;;14.71;47.89
48874;BME280;66155;46.204;5.220;2023-04-19T21:01:53;98315.59;;;14.59;47.53
48874;BME280;66155;46.204;5.220;2023-04-19T21:06:53;98313.34;;;14.48;48.35
48874;BME280;66155;46.204;5.220;2023-04-19T21:11:54;98309.03;;;14.38;48.72
48874;BME280;66155;46.204;5.220;2023-04-19T21:16:54;98310.75;;;14.23;48.88
48874;BME280;66155;46.204;5.220;2023-04-19T21:21:55;98312.72;;;14.13;49.60
48874;BME280;66155;46.204;5.220;2023-04-19T21:26:55;98307.34;;;13.99;49.92
48874;BME280;66155;46.204;5.220;2023-04-19T21:31:56;98305.09;;;13.87;50.04
48874;BME280;66155;46.204;5.220;2023-04-19T21:36:57;98302.88;;;13.75;50.61
48874;BME280;66155;46.204;5.220;2023-04-19T21:41:57;98308.44;;;13.68;51.64
48874;BME280;66155;46.204;5.220;2023-04-19T21:46:58;98303.78;;;13.60;51.61
48874;BME280;66155;46.204;5.220;2023-04-19T21:52:03;98305.66;;;13.55;52.09
48874;BME280;66155;46.204;5.220;2023-04-19T21:57:03;98297.63;;;13.46;52.12
48874;BME280;66155;46.204;5.220;2023-04-19T22:02:04;98292.72;;;13.34;52.89
48874;BME280;66155;46.204;5.220;2023-04-19T22:07:04;98296.47;;;13.23;52.85
48874;BME280;66155;46.204;5.220;2023-04-19T22:12:06;98296.56;;;13.07;53.98
48874;BME280;66155;46.204;5.220;2023-04-19T22:17:08;98292.72;;;12.94;54.73
48874;BME280;66155;46.204;5.220;2023-04-19T22:22:09;98290.72;;;12.81;55.14
48874;BME280;66155;46.204;5.220;2023-04-19T22:27:09;98284.75;;;12.76;54.94
48874;BME280;66155;46.204;5.220;2023-04-19T22:32:10;98276.97;;;12.60;55.88
48874;BME280;66155;46.204;5.220;2023-04-19T22:37:10;98277.25;;;12.59;55.08
48874;BME280;66155;46.204;5.220;2023-04-19T22:42:11;98277.03;;;12.50;54.77
48874;BME280;66155;46.204;5.220;2023-04-19T22:47:11;98268.97;;;12.41;55.41
48874;BME280;66155;46.204;5.220;2023-04-19T22:52:13;98266.09;;;12.38;55.65
48874;BME280;66155;46.204;5.220;2023-04-19T22:57:13;98270.03;;;12.35;55.12
48874;BME280;66155;46.204;5.220;2023-04-19T23:02:14;98270.56;;;12.32;56.07
48874;BME280;66155;46.204;5.220;2023-04-19T23:07:14;98270.31;;;12.28;55.82
48874;BME280;66155;46.204;5.220;2023-04-19T23:12:15;98260.16;;;12.22;55.99
48874;BME280;66155;46.204;5.220;2023-04-19T23:17:16;98256.03;;;12.10;57.33
48874;BME280;66155;46.204;5.220;2023-04-19T23:22:17;98255.78;;;12.02;56.78
48874;BME280;66155;46.204;5.220;2023-04-19T23:27:17;98260.00;;;11.92;57.28
48874;BME280;66155;46.204;5.220;2023-04-19T23:32:17;98249.78;;;11.86;57.41
48874;BME280;66155;46.204;5.220;2023-04-19T23:37:18;98248.28;;;11.74;57.64
48874;BME280;66155;46.204;5.220;2023-04-19T23:42:18;98244.09;;;11.68;58.00
48874;BME280;66155;46.204;5.220;2023-04-19T23:47:19;98236.00;;;11.59;57.89
48874;BME280;66155;46.204;5.220;2023-04-19T23:52:20;98236.78;;;11.60;57.67
48874;BME280;66155;46.204;5.220;2023-04-19T23:57:21;98233.41;;;11.49;59.23
